sensor_id;sensor_type;location;lat;lon;timestamp;P1;durP1;ratioP1;P2;durP2;ratioP2
4182;SDS011;2105;52.300;9.182;2022-07-23T00:00:08;8.70;;;6.50;;
4182;SDS011;2105;52.300;9.182;2022-07-23T00:02:36;15.13;;;5.47;;
4182;SDS011;2105;52.300;9.182;2022-07-23T00:05:04;7.53;;;4.53;;
4182;SDS011;2105;52.300;9.182;2022-07-23T00:07:31;8.10;;;5.40;;
4182;SDS011;2105;52.300;9.182;2022-07-23T00:09:58;18.60;;;6.07;;
4182;SDS011;2105;52.300;9.182;2022-07-23T00:12:25;9.80;;;5.77;;
4182;SDS011;2105;52.300;9.182;2022-07-23T00:14:52;8.17;;;5.40;;
4182;SDS011;2105;52.300;9.182;2022-07-23T00:17:18;15.73;;;6.53;;
4182;SDS011;2105;52.300;9.182;2022-07-23T00:19:45;9.57;;;5.43;;
4182;SDS011;2105;52.300;9.182;2022-07-23T00:22:14;8.37;;;5.97;;
4182;SDS011;2105;52.300;9.182;2022-07-23T00:24:41;12.23;;;6.40;;
4182;SDS011;2105;52.300;9.182;2022-07-23T00:27:07;11.70;;;5.53;;
4182;SDS011;2105;52.300;9.182;2022-07-23T00:29:34;7.90;;;5.53;;
4182;SDS011;2105;52.300;9.182;2022-07-23T00:32:01;6.90;;;6.23;;
4182;SDS011;2105;52.300;9.182;2022-07-23T00:34:27;10.93;;;6.07;;
4182;SDS011;2105;52.300;9.182;2022-07-23T00:36:54;12.57;;;7.10;;
4182;SDS011;2105;52.300;9.182;2022-07-23T00:39:22;7.43;;;6.17;;
4182;SDS011;2105;52.300;9.182;2022-07-23T00:41:49;10.50;;;7.03;;
4182;SDS011;2105;52.300;9.182;2022-07-23T00:44:17;9.77;;;6.60;;
4182;SDS011;2105;52.300;9.182;2022-07-23T00:46:46;12.57;;;6.53;;
4182;SDS011;2105;52.300;9.182;2022-07-23T00:49:14;8.73;;;6.60;;
4182;SDS011;2105;52.300;9.182;2022-07-23T00:51:41;10.27;;;7.23;;
4182;SDS011;2105;52.300;9.182;2022-07-23T00:54:08;8.17;;;6.70;;
4182;SDS011;2105;52.300;9.182;2022-07-23T00:56:37;10.20;;;6.70;;
4182;SDS011;2105;52.300;9.182;2022-07-23T00:59:04;13.03;;;6.20;;
4182;SDS011;2105;52.300;9.182;2022-07-23T01:01:32;9.90;;;5.97;;
4182;SDS011;2105;52.300;9.182;2022-07-23T01:03:59;11.27;;;6.60;;
4182;SDS011;2105;52.300;9.182;2022-07-23T01:06:27;10.53;;;6.87;;
4182;SDS011;2105;52.300;9.182;2022-07-23T01:08:54;9.30;;;6.90;;
4182;SDS011;2105;52.300;9.182;2022-07-23T01:11:21;11.73;;;7.20;;
4182;SDS011;2105;52.300;9.182;2022-07-23T01:13:50;9.47;;;6.73;;
4182;SDS011;2105;52.300;9.182;2022-07-23T01:16:17;10.77;;;6.70;;
4182;SDS011;2105;52.300;9.182;2022-07-23T01:18:44;12.50;;;6.67;;
4182;SDS011;2105;52.300;9.182;2022-07-23T01:21:10;9.87;;;5.70;;
4182;SDS011;2105;52.300;9.182;2022-07-23T01:23:40;9.47;;;6.83;;
4182;SDS011;2105;52.300;9.182;2022-07-23T01:26:07;8.90;;;6.33;;
4182;SDS011;2105;52.300;9.182;2022-07-23T01:28:33;21.40;;;8.53;;
4182;SDS011;2105;52.300;9.182;2022-07-23T01:31:00;16.20;;;8.40;;
4182;SDS011;2105;52.300;9.182;2022-07-23T01:33:26;10.93;;;7.30;;
4182;SDS011;2105;52.300;9.182;2022-07-23T01:35:53;11.67;;;7.77;;
4182;SDS011;2105;52.300;9.182;2022-07-23T01:38:20;10.83;;;7.63;;
4182;SDS011;2105;52.300;9.182;2022-07-23T01:40:48;14.50;;;7.60;;
4182;SDS011;2105;52.300;9.182;2022-07-23T01:43:15;10.33;;;6.90;;
4182;SDS011;2105;52.300;9.182;2022-07-23T01:45:41;11.63;;;6.87;;
4182;SDS011;2105;52.300;9.182;2022-07-23T01:48:09;16.30;;;7.00;;
4182;SDS011;2105;52.300;9.182;2022-07-23T01:50:36;13.27;;;6.93;;
4182;SDS011;2105;52.300;9.182;2022-07-23T01:53:02;10.63;;;7.53;;
4182;SDS011;2105;52.300;9.182;2022-07-23T01:55:29;10.87;;;7.60;;
4182;SDS011;2105;52.300;9.182;2022-07-23T01:57:57;15.60;;;7.73;;
4182;SDS011;2105;52.300;9.182;2022-07-23T02:00:24;11.43;;;8.43;;
4182;SDS011;2105;52.300;9.182;2022-07-23T02:02:50;10.43;;;7.00;;
4182;SDS011;2105;52.300;9.182;2022-07-23T02:05:17;15.50;;;7.50;;
4182;SDS011;2105;52.300;9.182;2022-07-23T02:07:44;13.33;;;7.40;;
4182;SDS011;2105;52.300;9.182;2022-07-23T02:10:10;16.80;;;8.00;;
4182;SDS011;2105;52.300;9.182;2022-07-23T02:12:37;15.80;;;8.10;;
4182;SDS011;2105;52.300;9.182;2022-07-23T02:15:06;17.00;;;9.83;;
4182;SDS011;2105;52.300;9.182;2022-07-23T02:17:33;11.97;;;9.67;;
4182;SDS011;2105;52.300;9.182;2022-07-23T02:20:00;22.50;;;10.20;;
4182;SDS011;2105;52.300;9.182;2022-07-23T02:22:27;19.63;;;9.70;;
4182;SDS011;2105;52.300;9.182;2022-07-23T02:24:54;21.83;;;10.23;;
4182;SDS011;2105;52.300;9.182;2022-07-23T02:27:21;13.83;;;9.73;;
4182;SDS011;2105;52.300;9.182;2022-07-23T02:29:48;14.67;;;10.23;;
4182;SDS011;2105;52.300;9.182;2022-07-23T02:32:16;16.80;;;10.70;;
4182;SDS011;2105;52.300;9.182;2022-07-23T02:34:42;15.60;;;9.17;;
4182;SDS011;2105;52.300;9.182;2022-07-23T02:37:09;18.50;;;10.80;;
4182;SDS011;2105;52.300;9.182;2022-07-23T02:39:36;13.80;;;8.23;;
4182;SDS011;2105;52.300;9.182;2022-07-23T02:42:03;16.67;;;8.10;;
4182;SDS011;2105;52.300;9.182;2022-07-23T02:44:30;22.17;;;9.43;;
4182;SDS011;2105;52.300;9.182;2022-07-23T02:46:56;19.33;;;9.00;;
4182;SDS011;2105;52.300;9.182;2022-07-23T02:49:24;13.53;;;9.33;;
4182;SDS011;2105;52.300;9.182;2022-07-23T02:51:51;17.30;;;8.53;;
4182;SDS011;2105;52.300;9.182;2022-07-23T02:54:18;18.47;;;11.23;;
4182;SDS011;2105;52.300;9.182;2022-07-23T02:56:45;14.97;;;7.67;;
4182;SDS011;2105;52.300;9.182;2022-07-23T02:59:11;18.73;;;7.20;;
4182;SDS011;2105;52.300;9.182;2022-07-23T03:01:38;11.53;;;7.17;;
4182;SDS011;2105;52.300;9.182;2022-07-23T03:04:05;17.10;;;8.53;;
4182;SDS011;2105;52.300;9.182;2022-07-23T03:06:33;15.10;;;8.00;;
4182;SDS011;2105;52.300;9.182;2022-07-23T03:08:59;15.33;;;8.83;;
4182;SDS011;2105;52.300;9.182;2022-07-23T03:11:26;20.23;;;8.90;;
4182;SDS011;2105;52.300;9.182;2022-07-23T03:13:53;12.70;;;7.80;;
4182;SDS011;2105;52.300;9.182;2022-07-23T03:16:19;11.43;;;8.17;;
4182;SDS011;2105;52.300;9.182;2022-07-23T03:18:46;11.80;;;7.93;;
4182;SDS011;2105;52.300;9.182;2022-07-23T03:21:13;13.80;;;8.63;;
4182;SDS011;2105;52.300;9.182;2022-07-23T03:23:41;13.83;;;9.60;;
4182;SDS011;2105;52.300;9.182;2022-07-23T03:26:07;17.00;;;9.07;;
4182;SDS011;2105;52.300;9.182;2022-07-23T03:28:34;15.37;;;9.80;;
4182;SDS011;2105;52.300;9.182;2022-07-23T03:31:01;14.57;;;9.40;;
4182;SDS011;2105;52.300;9.182;2022-07-23T03:33:27;15.23;;;9.57;;
4182;SDS011;2105;52.300;9.182;2022-07-23T03:35:54;13.57;;;8.60;;
4182;SDS011;2105;52.300;9.182;2022-07-23T03:38:21;18.33;;;9.00;;
4182;SDS011;2105;52.300;9.182;2022-07-23T03:40:49;16.10;;;9.17;;
4182;SDS011;2105;52.300;9.182;2022-07-23T03:43:15;19.00;;;10.20;;
4182;SDS011;2105;52.300;9.182;2022-07-23T03:45:42;21.90;;;10.20;;
4182;SDS011;2105;52.300;9.182;2022-07-23T03:48:09;14.67;;;9.80;;
4182;SDS011;2105;52.300;9.182;2022-07-23T03:50:35;18.50;;;9.90;;
4182;SDS011;2105;52.300;9.182;2022-07-23T03:53:03;12.00;;;9.00;;
4182;SDS011;2105;52.300;9.182;2022-07-23T03:55:29;17.00;;;9.93;;
4182;SDS011;2105;52.300;9.182;2022-07-23T03:57:57;16.13;;;9.90;;
4182;SDS011;2105;52.300;9.182;2022-07-23T04:00:24;12.73;;;9.93;;
4182;SDS011;2105;52.300;9.182;2022-07-23T04:02:51;11.60;;;9.90;;
4182;SDS011;2105;52.300;9.182;2022-07-23T04:05:17;14.37;;;9.50;;
4182;SDS011;2105;52.300;9.182;2022-07-23T04:07:44;11.03;;;9.50;;
4182;SDS011;2105;52.300;9.182;2022-07-23T04:10:11;14.57;;;9.30;;
4182;SDS011;2105;52.300;9.182;2022-07-23T04:12:38;15.70;;;10.30;;
4182;SDS011;2105;52.300;9.182;2022-07-23T04:15:07;12.93;;;9.60;;
4182;SDS011;2105;52.300;9.182;2022-07-23T04:17:34;17.50;;;11.20;;
4182;SDS011;2105;52.300;9.182;2022-07-23T04:20:00;16.93;;;10.27;;
4182;SDS011;2105;52.300;9.182;2022-07-23T04:22:27;13.17;;;10.00;;
4182;SDS011;2105;52.300;9.182;2022-07-23T04:24:54;14.50;;;9.40;;
4182;SDS011;2105;52.300;9.182;2022-07-23T04:27:20;16.10;;;11.17;;
4182;SDS011;2105;52.300;9.182;2022-07-23T04:29:47;19.57;;;11.80;;
4182;SDS011;2105;52.300;9.182;2022-07-23T04:32:15;21.93;;;11.33;;
4182;SDS011;2105;52.300;9.182;2022-07-23T04:34:42;19.67;;;11.23;;
4182;SDS011;2105;52.300;9.182;2022-07-23T04:37:08;17.80;;;11.83;;
4182;SDS011;2105;52.300;9.182;2022-07-23T04:39:35;21.33;;;11.40;;
4182;SDS011;2105;52.300;9.182;2022-07-23T04:42:02;11.83;;;10.10;;
4182;SDS011;2105;52.300;9.182;2022-07-23T04:44:29;15.63;;;11.23;;
4182;SDS011;2105;52.300;9.182;2022-07-23T04:46:56;16.57;;;11.87;;
4182;SDS011;2105;52.300;9.182;2022-07-23T04:49:24;18.47;;;12.07;;
4182;SDS011;2105;52.300;9.182;2022-07-23T04:51:50;23.43;;;12.00;;
4182;SDS011;2105;52.300;9.182;2022-07-23T04:54:17;17.63;;;11.10;;
4182;SDS011;2105;52.300;9.182;2022-07-23T04:56:43;18.00;;;11.67;;
4182;SDS011;2105;52.300;9.182;2022-07-23T04:59:10;17.20;;;11.60;;
4182;SDS011;2105;52.300;9.182;2022-07-23T05:01:37;18.83;;;11.40;;
4182;SDS011;2105;52.300;9.182;2022-07-23T05:04:04;15.80;;;11.43;;
4182;SDS011;2105;52.300;9.182;2022-07-23T05:06:32;18.97;;;12.40;;
4182;SDS011;2105;52.300;9.182;2022-07-23T05:08:58;15.77;;;12.10;;
4182;SDS011;2105;52.300;9.182;2022-07-23T05:11:25;18.10;;;13.20;;
4182;SDS011;2105;52.300;9.182;2022-07-23T05:13:52;17.50;;;11.57;;
4182;SDS011;2105;52.300;9.182;2022-07-23T05:16:18;16.10;;;11.57;;
4182;SDS011;2105;52.300;9.182;2022-07-23T05:18:45;19.80;;;11.50;;
4182;SDS011;2105;52.300;9.182;2022-07-23T05:21:12;14.20;;;10.80;;
4182;SDS011;2105;52.300;9.182;2022-07-23T05:23:40;14.00;;;10.23;;
4182;SDS011;2105;52.300;9.182;2022-07-23T05:26:06;13.47;;;10.67;;
4182;SDS011;2105;52.300;9.182;2022-07-23T05:28:33;19.80;;;11.17;;
4182;SDS011;2105;52.300;9.182;2022-07-23T05:31:00;16.10;;;10.53;;
4182;SDS011;2105;52.300;9.182;2022-07-23T05:33:27;17.53;;;10.93;;
4182;SDS011;2105;52.300;9.182;2022-07-23T05:35:59;23.20;;;11.00;;
4182;SDS011;2105;52.300;9.182;2022-07-23T05:38:26;19.00;;;10.87;;
4182;SDS011;2105;52.300;9.182;2022-07-23T05:40:54;20.50;;;11.47;;
4182;SDS011;2105;52.300;9.182;2022-07-23T05:43:21;19.83;;;11.30;;
4182;SDS011;2105;52.300;9.182;2022-07-23T05:45:47;15.60;;;10.83;;
4182;SDS011;2105;52.300;9.182;2022-07-23T05:48:14;14.57;;;9.90;;
4182;SDS011;2105;52.300;9.182;2022-07-23T05:50:41;13.67;;;10.80;;
4182;SDS011;2105;52.300;9.182;2022-07-23T05:53:07;18.50;;;10.63;;
4182;SDS011;2105;52.300;9.182;2022-07-23T05:55:34;13.40;;;10.90;;
4182;SDS011;2105;52.300;9.182;2022-07-23T05:58:02;14.70;;;10.33;;
4182;SDS011;2105;52.300;9.182;2022-07-23T06:00:29;19.13;;;11.13;;
4182;SDS011;2105;52.300;9.182;2022-07-23T06:02:56;16.20;;;10.70;;
4182;SDS011;2105;52.300;9.182;2022-07-23T06:05:24;22.43;;;10.40;;
4182;SDS011;2105;52.300;9.182;2022-07-23T06:07:50;16.70;;;10.50;;
4182;SDS011;2105;52.300;9.182;2022-07-23T06:10:18;12.07;;;10.37;;
4182;SDS011;2105;52.300;9.182;2022-07-23T06:12:45;11.73;;;9.97;;
4182;SDS011;2105;52.300;9.182;2022-07-23T06:15:13;19.13;;;9.80;;
4182;SDS011;2105;52.300;9.182;2022-07-23T06:17:40;15.60;;;10.00;;
4182;SDS011;2105;52.300;9.182;2022-07-23T06:20:07;15.93;;;10.57;;
4182;SDS011;2105;52.300;9.182;2022-07-23T06:22:35;15.10;;;10.30;;
4182;SDS011;2105;52.300;9.182;2022-07-23T06:25:02;15.07;;;10.27;;
4182;SDS011;2105;52.300;9.182;2022-07-23T06:27:29;18.50;;;10.00;;
4182;SDS011;2105;52.300;9.182;2022-07-23T06:29:55;13.93;;;9.23;;
4182;SDS011;2105;52.300;9.182;2022-07-23T06:32:23;12.30;;;8.80;;
4182;SDS011;2105;52.300;9.182;2022-07-23T06:34:50;16.13;;;8.63;;
4182;SDS011;2105;52.300;9.182;2022-07-23T06:37:17;14.10;;;8.80;;
4182;SDS011;2105;52.300;9.182;2022-07-23T06:39:43;15.30;;;9.90;;
4182;SDS011;2105;52.300;9.182;2022-07-23T06:42:10;11.23;;;9.53;;
4182;SDS011;2105;52.300;9.182;2022-07-23T06:44:37;15.73;;;8.80;;
4182;SDS011;2105;52.300;9.182;2022-07-23T06:47:04;15.00;;;9.10;;
4182;SDS011;2105;52.300;9.182;2022-07-23T06:49:32;13.30;;;9.23;;
4182;SDS011;2105;52.300;9.182;2022-07-23T06:51:59;15.07;;;9.90;;
4182;SDS011;2105;52.300;9.182;2022-07-23T06:54:25;12.63;;;7.67;;
4182;SDS011;2105;52.300;9.182;2022-07-23T06:56:52;14.07;;;8.83;;
4182;SDS011;2105;52.300;9.182;2022-07-23T06:59:19;11.73;;;8.30;;
4182;SDS011;2105;52.300;9.182;2022-07-23T07:01:45;12.97;;;7.60;;
4182;SDS011;2105;52.300;9.182;2022-07-23T07:04:12;15.63;;;7.97;;
4182;SDS011;2105;52.300;9.182;2022-07-23T07:06:40;9.30;;;6.80;;
4182;SDS011;2105;52.300;9.182;2022-07-23T07:09:07;10.70;;;6.90;;
4182;SDS011;2105;52.300;9.182;2022-07-23T07:11:33;12.80;;;7.80;;
4182;SDS011;2105;52.300;9.182;2022-07-23T07:14:00;12.33;;;7.03;;
4182;SDS011;2105;52.300;9.182;2022-07-23T07:16:27;12.00;;;7.10;;
4182;SDS011;2105;52.300;9.182;2022-07-23T07:18:53;8.50;;;6.03;;
4182;SDS011;2105;52.300;9.182;2022-07-23T07:21:20;10.47;;;6.60;;
4182;SDS011;2105;52.300;9.182;2022-07-23T07:23:48;11.43;;;5.70;;
4182;SDS011;2105;52.300;9.182;2022-07-23T07:26:15;9.20;;;5.70;;
4182;SDS011;2105;52.300;9.182;2022-07-23T07:28:41;9.57;;;5.40;;
4182;SDS011;2105;52.300;9.182;2022-07-23T07:31:08;15.23;;;5.60;;
4182;SDS011;2105;52.300;9.182;2022-07-23T07:33:35;9.00;;;6.00;;
4182;SDS011;2105;52.300;9.182;2022-07-23T07:36:01;12.33;;;6.27;;
4182;SDS011;2105;52.300;9.182;2022-07-23T07:38:29;11.33;;;6.00;;
4182;SDS011;2105;52.300;9.182;2022-07-23T07:40:57;14.80;;;6.37;;
4182;SDS011;2105;52.300;9.182;2022-07-23T07:43:23;10.07;;;6.40;;
4182;SDS011;2105;52.300;9.182;2022-07-23T07:45:50;6.43;;;5.60;;
4182;SDS011;2105;52.300;9.182;2022-07-23T07:48:17;13.17;;;7.17;;
4182;SDS011;2105;52.300;9.182;2022-07-23T07:50:43;10.53;;;6.87;;
4182;SDS011;2105;52.300;9.182;2022-07-23T07:53:10;12.37;;;5.60;;
4182;SDS011;2105;52.300;9.182;2022-07-23T07:55:37;7.53;;;5.23;;
4182;SDS011;2105;52.300;9.182;2022-07-23T07:58:05;9.80;;;5.27;;
4182;SDS011;2105;52.300;9.182;2022-07-23T08:00:31;13.73;;;5.40;;
4182;SDS011;2105;52.300;9.182;2022-07-23T08:02:58;9.73;;;5.60;;
4182;SDS011;2105;52.300;9.182;2022-07-23T08:05:26;8.00;;;6.23;;
4182;SDS011;2105;52.300;9.182;2022-07-23T08:07:55;6.80;;;5.87;;
4182;SDS011;2105;52.300;9.182;2022-07-23T08:10:23;8.87;;;5.20;;
4182;SDS011;2105;52.300;9.182;2022-07-23T08:12:50;7.60;;;5.10;;
4182;SDS011;2105;52.300;9.182;2022-07-23T08:15:20;8.20;;;5.47;;
4182;SDS011;2105;52.300;9.182;2022-07-23T08:17:47;7.93;;;4.70;;
4182;SDS011;2105;52.300;9.182;2022-07-23T08:20:15;5.70;;;4.30;;
4182;SDS011;2105;52.300;9.182;2022-07-23T08:22:44;7.43;;;4.50;;
4182;SDS011;2105;52.300;9.182;2022-07-23T08:25:11;9.90;;;4.50;;
4182;SDS011;2105;52.300;9.182;2022-07-23T08:27:38;8.40;;;4.93;;
4182;SDS011;2105;52.300;9.182;2022-07-23T08:30:05;5.43;;;4.20;;
4182;SDS011;2105;52.300;9.182;2022-07-23T08:32:35;6.47;;;3.70;;
4182;SDS011;2105;52.300;9.182;2022-07-23T08:35:14;4.47;;;3.33;;
4182;SDS011;2105;52.300;9.182;2022-07-23T08:37:40;13.37;;;7.77;;
4182;SDS011;2105;52.300;9.182;2022-07-23T08:40:07;6.10;;;3.73;;
4182;SDS011;2105;52.300;9.182;2022-07-23T08:42:35;5.87;;;3.60;;
4182;SDS011;2105;52.300;9.182;2022-07-23T08:45:02;9.93;;;3.37;;
4182;SDS011;2105;52.300;9.182;2022-07-23T08:47:29;11.77;;;3.57;;
4182;SDS011;2105;52.300;9.182;2022-07-23T08:49:58;10.17;;;3.90;;
4182;SDS011;2105;52.300;9.182;2022-07-23T08:52:25;6.83;;;3.10;;
4182;SDS011;2105;52.300;9.182;2022-07-23T08:54:52;5.07;;;3.43;;
4182;SDS011;2105;52.300;9.182;2022-07-23T08:57:20;6.73;;;2.93;;
4182;SDS011;2105;52.300;9.182;2022-07-23T08:59:47;7.00;;;3.10;;
4182;SDS011;2105;52.300;9.182;2022-07-23T09:02:13;3.83;;;2.57;;
4182;SDS011;2105;52.300;9.182;2022-07-23T09:04:40;5.00;;;2.97;;
4182;SDS011;2105;52.300;9.182;2022-07-23T09:07:08;6.10;;;3.00;;
4182;SDS011;2105;52.300;9.182;2022-07-23T09:09:35;5.47;;;3.70;;
4182;SDS011;2105;52.300;9.182;2022-07-23T09:12:02;6.43;;;3.20;;
4182;SDS011;2105;52.300;9.182;2022-07-23T09:14:36;8.33;;;3.27;;
4182;SDS011;2105;52.300;9.182;2022-07-23T09:17:08;6.27;;;3.27;;
4182;SDS011;2105;52.300;9.182;2022-07-23T09:19:36;8.10;;;3.23;;
4182;SDS011;2105;52.300;9.182;2022-07-23T09:22:17;10.63;;;3.30;;
4182;SDS011;2105;52.300;9.182;2022-07-23T09:27:44;6.20;;;3.27;;
4182;SDS011;2105;52.300;9.182;2022-07-23T09:30:17;4.27;;;2.70;;
4182;SDS011;2105;52.300;9.182;2022-07-23T09:32:44;7.07;;;3.10;;
4182;SDS011;2105;52.300;9.182;2022-07-23T09:35:10;4.97;;;2.10;;
4182;SDS011;2105;52.300;9.182;2022-07-23T09:37:38;3.90;;;2.70;;
4182;SDS011;2105;52.300;9.182;2022-07-23T09:40:06;5.40;;;2.60;;
4182;SDS011;2105;52.300;9.182;2022-07-23T09:42:36;3.77;;;2.97;;
4182;SDS011;2105;52.300;9.182;2022-07-23T09:45:03;5.93;;;3.00;;
4182;SDS011;2105;52.300;9.182;2022-07-23T09:47:36;3.80;;;2.70;;
4182;SDS011;2105;52.300;9.182;2022-07-23T09:50:04;4.50;;;3.30;;
4182;SDS011;2105;52.300;9.182;2022-07-23T09:52:35;5.10;;;2.80;;
4182;SDS011;2105;52.300;9.182;2022-07-23T09:55:09;4.00;;;2.77;;
4182;SDS011;2105;52.300;9.182;2022-07-23T09:57:37;4.33;;;3.20;;
4182;SDS011;2105;52.300;9.182;2022-07-23T10:00:06;4.33;;;2.80;;
4182;SDS011;2105;52.300;9.182;2022-07-23T10:02:35;3.70;;;2.93;;
4182;SDS011;2105;52.300;9.182;2022-07-23T10:05:03;5.53;;;2.70;;
4182;SDS011;2105;52.300;9.182;2022-07-23T10:07:31;5.80;;;3.10;;
4182;SDS011;2105;52.300;9.182;2022-07-23T10:10:00;6.30;;;2.80;;
4182;SDS011;2105;52.300;9.182;2022-07-23T10:12:28;3.50;;;2.67;;
4182;SDS011;2105;52.300;9.182;2022-07-23T10:15:15;3.40;;;2.70;;
4182;SDS011;2105;52.300;9.182;2022-07-23T10:17:42;3.47;;;2.83;;
4182;SDS011;2105;52.300;9.182;2022-07-23T10:20:09;5.23;;;3.20;;
4182;SDS011;2105;52.300;9.182;2022-07-23T10:22:37;3.50;;;3.00;;
4182;SDS011;2105;52.300;9.182;2022-07-23T10:25:09;5.80;;;3.30;;
4182;SDS011;2105;52.300;9.182;2022-07-23T10:27:52;5.03;;;3.20;;
4182;SDS011;2105;52.300;9.182;2022-07-23T10:30:34;4.27;;;3.70;;
4182;SDS011;2105;52.300;9.182;2022-07-23T10:33:17;4.33;;;3.93;;
4182;SDS011;2105;52.300;9.182;2022-07-23T10:35:50;4.10;;;3.70;;
4182;SDS011;2105;52.300;9.182;2022-07-23T10:38:25;4.10;;;3.80;;
4182;SDS011;2105;52.300;9.182;2022-07-23T10:40:56;4.27;;;3.40;;
4182;SDS011;2105;52.300;9.182;2022-07-23T10:43:26;4.50;;;3.77;;
4182;SDS011;2105;52.300;9.182;2022-07-23T10:45:54;7.57;;;3.53;;
4182;SDS011;2105;52.300;9.182;2022-07-23T10:48:22;5.63;;;3.87;;
4182;SDS011;2105;52.300;9.182;2022-07-23T10:51:06;4.57;;;4.00;;
4182;SDS011;2105;52.300;9.182;2022-07-23T10:53:53;4.13;;;3.73;;
4182;SDS011;2105;52.300;9.182;2022-07-23T10:59:31;4.17;;;3.60;;
4182;SDS011;2105;52.300;9.182;2022-07-23T11:04:49;5.20;;;3.60;;
4182;SDS011;2105;52.300;9.182;2022-07-23T11:07:17;4.47;;;4.10;;
4182;SDS011;2105;52.300;9.182;2022-07-23T11:09:44;8.03;;;3.93;;
4182;SDS011;2105;52.300;9.182;2022-07-23T11:12:31;5.80;;;4.27;;
4182;SDS011;2105;52.300;9.182;2022-07-23T11:15:02;8.53;;;4.13;;
4182;SDS011;2105;52.300;9.182;2022-07-23T11:17:32;4.20;;;3.80;;
4182;SDS011;2105;52.300;9.182;2022-07-23T11:20:19;6.00;;;4.20;;
4182;SDS011;2105;52.300;9.182;2022-07-23T11:22:51;5.70;;;4.50;;
4182;SDS011;2105;52.300;9.182;2022-07-23T11:25:31;5.27;;;4.80;;
4182;SDS011;2105;52.300;9.182;2022-07-23T11:28:09;4.50;;;4.20;;
4182;SDS011;2105;52.300;9.182;2022-07-23T11:30:43;7.10;;;5.30;;
4182;SDS011;2105;52.300;9.182;2022-07-23T11:33:17;6.40;;;5.10;;
4182;SDS011;2105;52.300;9.182;2022-07-23T11:35:46;6.43;;;4.80;;
4182;SDS011;2105;52.300;9.182;2022-07-23T11:38:15;5.10;;;4.70;;
4182;SDS011;2105;52.300;9.182;2022-07-23T11:40:45;5.53;;;5.00;;
4182;SDS011;2105;52.300;9.182;2022-07-23T11:43:13;13.30;;;4.77;;
4182;SDS011;2105;52.300;9.182;2022-07-23T11:45:40;6.10;;;4.80;;
4182;SDS011;2105;52.300;9.182;2022-07-23T11:48:15;6.53;;;4.73;;
4182;SDS011;2105;52.300;9.182;2022-07-23T11:50:43;5.30;;;4.80;;
4182;SDS011;2105;52.300;9.182;2022-07-23T11:53:10;5.83;;;4.93;;
4182;SDS011;2105;52.300;9.182;2022-07-23T11:55:37;4.93;;;4.40;;
4182;SDS011;2105;52.300;9.182;2022-07-23T11:58:04;11.47;;;4.77;;
4182;SDS011;2105;52.300;9.182;2022-07-23T12:00:31;4.87;;;4.47;;
4182;SDS011;2105;52.300;9.182;2022-07-23T12:03:00;5.77;;;5.27;;
4182;SDS011;2105;52.300;9.182;2022-07-23T12:05:29;6.20;;;5.80;;
4182;SDS011;2105;52.300;9.182;2022-07-23T12:07:57;5.57;;;4.93;;
4182;SDS011;2105;52.300;9.182;2022-07-23T12:10:26;6.40;;;5.60;;
4182;SDS011;2105;52.300;9.182;2022-07-23T12:12:55;8.60;;;5.80;;
4182;SDS011;2105;52.300;9.182;2022-07-23T12:15:25;5.83;;;5.33;;
4182;SDS011;2105;52.300;9.182;2022-07-23T12:17:55;5.70;;;5.00;;
4182;SDS011;2105;52.300;9.182;2022-07-23T12:20:24;5.50;;;5.10;;
4182;SDS011;2105;52.300;9.182;2022-07-23T12:22:55;6.00;;;5.50;;
4182;SDS011;2105;52.300;9.182;2022-07-23T12:25:25;5.90;;;5.30;;
4182;SDS011;2105;52.300;9.182;2022-07-23T12:28:00;5.80;;;5.30;;
4182;SDS011;2105;52.300;9.182;2022-07-23T12:30:30;5.60;;;5.23;;
4182;SDS011;2105;52.300;9.182;2022-07-23T12:32:58;5.50;;;5.00;;
4182;SDS011;2105;52.300;9.182;2022-07-23T12:35:32;5.10;;;4.80;;
4182;SDS011;2105;52.300;9.182;2022-07-23T12:38:02;5.63;;;5.23;;
4182;SDS011;2105;52.300;9.182;2022-07-23T12:40:31;5.17;;;4.77;;
4182;SDS011;2105;52.300;9.182;2022-07-23T12:43:00;5.50;;;5.10;;
4182;SDS011;2105;52.300;9.182;2022-07-23T12:45:41;5.90;;;5.40;;
4182;SDS011;2105;52.300;9.182;2022-07-23T12:48:14;5.80;;;5.30;;
4182;SDS011;2105;52.300;9.182;2022-07-23T12:50:47;5.20;;;4.80;;
4182;SDS011;2105;52.300;9.182;2022-07-23T12:53:20;5.70;;;5.20;;
4182;SDS011;2105;52.300;9.182;2022-07-23T12:55:49;5.30;;;4.80;;
4182;SDS011;2105;52.300;9.182;2022-07-23T12:58:17;5.27;;;4.97;;
4182;SDS011;2105;52.300;9.182;2022-07-23T13:00:59;5.53;;;5.13;;
4182;SDS011;2105;52.300;9.182;2022-07-23T13:03:29;7.00;;;5.20;;
4182;SDS011;2105;52.300;9.182;2022-07-23T13:05:59;5.47;;;5.10;;
4182;SDS011;2105;52.300;9.182;2022-07-23T13:08:28;5.40;;;5.00;;
4182;SDS011;2105;52.300;9.182;2022-07-23T13:10:55;6.50;;;5.43;;
4182;SDS011;2105;52.300;9.182;2022-07-23T13:13:23;5.70;;;5.40;;
4182;SDS011;2105;52.300;9.182;2022-07-23T13:15:51;6.30;;;5.83;;
4182;SDS011;2105;52.300;9.182;2022-07-23T13:18:18;6.20;;;5.70;;
4182;SDS011;2105;52.300;9.182;2022-07-23T13:20:46;6.30;;;5.80;;
4182;SDS011;2105;52.300;9.182;2022-07-23T13:23:15;6.30;;;5.70;;
4182;SDS011;2105;52.300;9.182;2022-07-23T13:25:42;6.10;;;5.57;;
4182;SDS011;2105;52.300;9.182;2022-07-23T13:28:09;10.73;;;5.20;;
4182;SDS011;2105;52.300;9.182;2022-07-23T13:30:36;7.03;;;5.60;;
4182;SDS011;2105;52.300;9.182;2022-07-23T13:33:03;5.63;;;5.23;;
4182;SDS011;2105;52.300;9.182;2022-07-23T13:35:30;6.23;;;5.60;;
4182;SDS011;2105;52.300;9.182;2022-07-23T13:37:57;5.80;;;5.20;;
4182;SDS011;2105;52.300;9.182;2022-07-23T13:40:25;5.67;;;5.10;;
4182;SDS011;2105;52.300;9.182;2022-07-23T13:42:52;6.10;;;5.50;;
4182;SDS011;2105;52.300;9.182;2022-07-23T13:45:19;5.80;;;5.40;;
4182;SDS011;2105;52.300;9.182;2022-07-23T13:47:46;5.90;;;5.50;;
4182;SDS011;2105;52.300;9.182;2022-07-23T13:50:12;5.53;;;5.13;;
4182;SDS011;2105;52.300;9.182;2022-07-23T13:52:41;6.00;;;5.60;;
4182;SDS011;2105;52.300;9.182;2022-07-23T13:55:08;5.70;;;5.20;;
4182;SDS011;2105;52.300;9.182;2022-07-23T13:57:36;5.57;;;5.20;;
4182;SDS011;2105;52.300;9.182;2022-07-23T14:00:03;5.40;;;5.00;;
4182;SDS011;2105;52.300;9.182;2022-07-23T14:02:32;5.73;;;5.33;;
4182;SDS011;2105;52.300;9.182;2022-07-23T14:04:59;6.47;;;5.70;;
4182;SDS011;2105;52.300;9.182;2022-07-23T14:07:25;6.60;;;6.00;;
4182;SDS011;2105;52.300;9.182;2022-07-23T14:09:52;7.33;;;6.60;;
4182;SDS011;2105;52.300;9.182;2022-07-23T14:12:18;5.60;;;5.20;;
4182;SDS011;2105;52.300;9.182;2022-07-23T14:14:47;5.80;;;5.30;;
4182;SDS011;2105;52.300;9.182;2022-07-23T14:17:13;5.67;;;5.20;;
4182;SDS011;2105;52.300;9.182;2022-07-23T14:19:40;6.07;;;5.47;;
4182;SDS011;2105;52.300;9.182;2022-07-23T14:22:06;6.17;;;5.70;;
4182;SDS011;2105;52.300;9.182;2022-07-23T14:24:33;6.10;;;5.70;;
4182;SDS011;2105;52.300;9.182;2022-07-23T14:27:00;6.20;;;5.80;;
4182;SDS011;2105;52.300;9.182;2022-07-23T14:29:27;5.80;;;5.50;;
4182;SDS011;2105;52.300;9.182;2022-07-23T14:31:56;5.87;;;5.50;;
4182;SDS011;2105;52.300;9.182;2022-07-23T14:34:23;6.17;;;5.50;;
4182;SDS011;2105;52.300;9.182;2022-07-23T14:36:50;6.43;;;5.80;;
4182;SDS011;2105;52.300;9.182;2022-07-23T14:39:17;6.67;;;6.00;;
4182;SDS011;2105;52.300;9.182;2022-07-23T14:41:44;5.63;;;5.20;;
4182;SDS011;2105;52.300;9.182;2022-07-23T14:44:10;6.63;;;5.47;;
4182;SDS011;2105;52.300;9.182;2022-07-23T14:46:37;5.47;;;4.90;;
4182;SDS011;2105;52.300;9.182;2022-07-23T14:49:05;5.50;;;5.10;;
4182;SDS011;2105;52.300;9.182;2022-07-23T14:51:32;6.27;;;5.30;;
4182;SDS011;2105;52.300;9.182;2022-07-23T14:53:59;5.97;;;5.57;;
4182;SDS011;2105;52.300;9.182;2022-07-23T14:56:26;5.87;;;5.57;;
4182;SDS011;2105;52.300;9.182;2022-07-23T14:58:52;6.60;;;6.10;;
4182;SDS011;2105;52.300;9.182;2022-07-23T15:01:20;6.33;;;5.93;;
4182;SDS011;2105;52.300;9.182;2022-07-23T15:03:47;6.70;;;6.10;;
4182;SDS011;2105;52.300;9.182;2022-07-23T15:06:15;6.20;;;5.70;;
4182;SDS011;2105;52.300;9.182;2022-07-23T15:08:42;5.83;;;5.43;;
4182;SDS011;2105;52.300;9.182;2022-07-23T15:11:09;6.27;;;5.67;;
4182;SDS011;2105;52.300;9.182;2022-07-23T15:13:36;5.20;;;4.70;;
4182;SDS011;2105;52.300;9.182;2022-07-23T15:16:03;5.80;;;5.40;;
4182;SDS011;2105;52.300;9.182;2022-07-23T15:18:30;5.43;;;4.93;;
4182;SDS011;2105;52.300;9.182;2022-07-23T15:20:57;6.27;;;5.70;;